FDB242 OMDB-LGSR
Flight info
| Callsign | FDB242 |
|---|---|
| Flight time | N/A |
| Altitude | 36000 |
| Route | SENPA N571 ALPOB L768 VATIM DCT MENLI L677 CVO DCT NOZ L617 TANSA UL617 SIT L607 GIVIS |
| Aircraft | B38M/M-SDE1FGHILORVWXY/HB1 |
Departure
| Time | 2026-05-06 15:50 |
|---|---|
| Airport | Dubai International Airport (OMDB) |
Arrival
| Time | N/A |
|---|---|
| Airport | Santorini International Airport (LGSR) |
| Time | Latitude | Longitude | Altitude | Speed | Heading |
|---|---|---|---|---|---|
| 2026-05-06 15:20 | 25.24274 | 55.37524 | 40 ft | 0 kts | 207° |
| 2026-05-06 15:31 | 25.24283 | 55.37529 | 40 ft | 3 kts | 207° |
| 2026-05-06 15:31 | 25.24301 | 55.37539 | 40 ft | 3 kts | 207° |
| 2026-05-06 15:32 | 25.24336 | 55.37561 | 40 ft | 3 kts | 205° |
| 2026-05-06 15:32 | 25.24351 | 55.37565 | 38 ft | 3 kts | 158° |
| 2026-05-06 15:32 | 25.24356 | 55.37561 | 34 ft | 2 kts | 121° |
| 2026-05-06 15:32 | 25.24365 | 55.37544 | 39 ft | 2 kts | 121° |
| 2026-05-06 15:33 | 25.24368 | 55.37538 | 39 ft | 0 kts | 121° |
| 2026-05-06 15:36 | 25.24368 | 55.37540 | 39 ft | 1 kts | 121° |
| 2026-05-06 15:37 | 25.24364 | 55.37546 | 39 ft | 1 kts | 121° |
| 2026-05-06 15:37 | 25.24358 | 55.37557 | 34 ft | 4 kts | 121° |
| 2026-05-06 15:37 | 25.24335 | 55.37598 | 40 ft | 8 kts | 121° |
| 2026-05-06 15:37 | 25.24308 | 55.37647 | 40 ft | 8 kts | 121° |
| 2026-05-06 15:38 | 25.24281 | 55.37697 | 41 ft | 7 kts | 121° |
| 2026-05-06 15:38 | 25.24262 | 55.37748 | 42 ft | 7 kts | 84° |
| 2026-05-06 15:38 | 25.24297 | 55.37793 | 41 ft | 8 kts | 32° |
| 2026-05-06 15:38 | 25.24322 | 55.37808 | 39 ft | 1 kts | 31° |
| 2026-05-06 15:39 | 25.24324 | 55.37819 | 37 ft | 4 kts | 89° |
| 2026-05-06 15:39 | 25.24283 | 55.37884 | 39 ft | 18 kts | 122° |
| 2026-05-06 15:39 | 25.24192 | 55.38046 | 44 ft | 29 kts | 121° |
| 2026-05-06 15:39 | 25.24083 | 55.38244 | 46 ft | 30 kts | 122° |
| 2026-05-06 15:40 | 25.23973 | 55.38439 | 49 ft | 30 kts | 122° |
| 2026-05-06 15:40 | 25.23867 | 55.38628 | 48 ft | 29 kts | 122° |
| 2026-05-06 15:40 | 25.23762 | 55.38816 | 53 ft | 28 kts | 121° |
| 2026-05-06 15:40 | 25.23664 | 55.38997 | 54 ft | 27 kts | 122° |
| 2026-05-06 15:41 | 25.23566 | 55.39170 | 60 ft | 26 kts | 121° |
| 2026-05-06 15:41 | 25.23472 | 55.39340 | 63 ft | 26 kts | 121° |
| 2026-05-06 15:41 | 25.23383 | 55.39501 | 63 ft | 22 kts | 121° |
| 2026-05-06 15:41 | 25.23326 | 55.39602 | 67 ft | 12 kts | 121° |
| 2026-05-06 15:42 | 25.23319 | 55.39658 | 68 ft | 5 kts | 34° |
| 2026-05-06 15:42 | 25.23386 | 55.39686 | 48 ft | 24 kts | 26° |
| 2026-05-06 15:42 | 25.23543 | 55.39794 | 52 ft | 25 kts | 33° |
| 2026-05-06 15:42 | 25.23637 | 55.39767 | 67 ft | 19 kts | 306° |
| 2026-05-06 15:43 | 25.23722 | 55.39618 | 63 ft | 26 kts | 301° |
| 2026-05-06 15:43 | 25.23837 | 55.39412 | 64 ft | 37 kts | 302° |
| 2026-05-06 15:43 | 25.23915 | 55.39270 | 54 ft | 15 kts | 299° |
| 2026-05-06 15:43 | 25.24007 | 55.39100 | 35 ft | 29 kts | 302° |
| 2026-05-06 15:44 | 25.24118 | 55.38904 | 34 ft | 31 kts | 301° |
| 2026-05-06 15:44 | 25.24231 | 55.38700 | 35 ft | 31 kts | 302° |
| 2026-05-06 15:44 | 25.24347 | 55.38493 | 35 ft | 33 kts | 301° |
| 2026-05-06 15:44 | 25.24463 | 55.38284 | 38 ft | 32 kts | 302° |
| 2026-05-06 15:45 | 25.24575 | 55.38082 | 33 ft | 22 kts | 303° |
| 2026-05-06 15:45 | 25.24696 | 55.38086 | 38 ft | 18 kts | 32° |
| 2026-05-06 15:45 | 25.24746 | 55.38116 | 39 ft | 1 kts | 347° |
| 2026-05-06 15:45 | 25.24758 | 55.38102 | 37 ft | 6 kts | 310° |
| 2026-05-06 15:46 | 25.24771 | 55.38082 | 36 ft | 0 kts | 301° |
| 2026-05-06 15:48 | 25.24774 | 55.38077 | 37 ft | 4 kts | 301° |
| 2026-05-06 15:48 | 25.24845 | 55.37948 | 35 ft | 46 kts | 302° |
| 2026-05-06 15:49 | 25.25120 | 55.37456 | 33 ft | 105 kts | 302° |
| 2026-05-06 15:49 | 25.25586 | 55.36619 | 20 ft | 149 kts | 301° |
| 2026-05-06 15:49 | 25.26199 | 55.35517 | 41 ft | 183 kts | 304° |
| 2026-05-06 15:49 | 25.26840 | 55.34321 | 602 ft | 179 kts | 302° |
| 2026-05-06 15:50 | 25.27495 | 55.33120 | 1009 ft | 184 kts | 302° |
| 2026-05-06 15:50 | 25.27941 | 55.32319 | 1364 ft | 187 kts | 303° |
| 2026-05-06 15:50 | 25.28766 | 55.30549 | 1826 ft | 211 kts | 285° |
| 2026-05-06 15:50 | 25.28935 | 55.28854 | 2158 ft | 234 kts | 271° |
| 2026-05-06 15:51 | 25.29001 | 55.27008 | 2741 ft | 245 kts | 272° |
| 2026-05-06 15:51 | 25.29092 | 55.25081 | 3332 ft | 258 kts | 272° |
| 2026-05-06 15:51 | 25.29199 | 55.23055 | 3942 ft | 269 kts | 272° |
| 2026-05-06 15:51 | 25.29276 | 55.21674 | 4398 ft | 274 kts | 272° |
| 2026-05-06 15:52 | 25.29401 | 55.19533 | 5164 ft | 278 kts | 272° |
| 2026-05-06 15:52 | 25.29528 | 55.17416 | 5931 ft | 282 kts | 272° |
| 2026-05-06 15:52 | 25.29661 | 55.15242 | 6696 ft | 286 kts | 272° |
| 2026-05-06 15:52 | 25.29797 | 55.13039 | 7467 ft | 289 kts | 272° |
| 2026-05-06 15:53 | 25.29934 | 55.10811 | 8216 ft | 293 kts | 272° |
| 2026-05-06 15:53 | 25.30071 | 55.08555 | 8960 ft | 296 kts | 273° |
| 2026-05-06 15:53 | 25.30211 | 55.06267 | 9710 ft | 300 kts | 273° |
| 2026-05-06 15:53 | 25.30353 | 55.03945 | 10325 ft | 308 kts | 273° |
| 2026-05-06 15:54 | 25.30501 | 55.01513 | 10612 ft | 327 kts | 274° |
| 2026-05-06 15:54 | 25.30659 | 54.98927 | 10833 ft | 347 kts | 274° |
| 2026-05-06 15:54 | 25.30825 | 54.96190 | 11026 ft | 366 kts | 274° |
| 2026-05-06 15:54 | 25.30998 | 54.93337 | 11338 ft | 379 kts | 274° |
| 2026-05-06 15:55 | 25.31173 | 54.90414 | 11895 ft | 382 kts | 274° |
| 2026-05-06 15:55 | 25.31348 | 54.87477 | 12519 ft | 385 kts | 275° |
| 2026-05-06 15:55 | 25.31524 | 54.84514 | 13074 ft | 388 kts | 275° |
| 2026-05-06 15:55 | 25.31701 | 54.81531 | 13657 ft | 390 kts | 275° |
| 2026-05-06 15:56 | 25.32027 | 54.78551 | 14130 ft | 392 kts | 285° |
| 2026-05-06 15:56 | 25.32726 | 54.75634 | 14617 ft | 394 kts | 285° |
| 2026-05-06 15:56 | 25.33395 | 54.72682 | 15069 ft | 398 kts | 285° |
| 2026-05-06 15:56 | 25.34062 | 54.69706 | 15557 ft | 400 kts | 285° |
| 2026-05-06 15:57 | 25.34731 | 54.66708 | 16016 ft | 403 kts | 285° |
| 2026-05-06 15:57 | 25.35403 | 54.63692 | 16480 ft | 405 kts | 284° |
| 2026-05-06 15:57 | 25.36078 | 54.60658 | 16931 ft | 408 kts | 284° |
| 2026-05-06 15:57 | 25.36756 | 54.57603 | 17397 ft | 410 kts | 284° |
| 2026-05-06 15:58 | 25.37438 | 54.54531 | 17831 ft | 413 kts | 284° |
| 2026-05-06 15:58 | 25.38123 | 54.51442 | 18237 ft | 415 kts | 283° |
| 2026-05-06 15:58 | 25.38811 | 54.48335 | 18635 ft | 416 kts | 283° |
| 2026-05-06 15:58 | 25.39501 | 54.45222 | 19013 ft | 418 kts | 283° |
| 2026-05-06 15:59 | 25.40191 | 54.42098 | 19414 ft | 418 kts | 283° |
| 2026-05-06 15:59 | 25.40883 | 54.38967 | 19795 ft | 420 kts | 283° |